Time;durP1;ratioP1;P1;durP2;ratioP2;P2;SDS_P1;SDS_P2;PMS_P1;PMS_P2;Temp;Humidity;BMP_temperature;BMP_pressure;BME280_temperature;BME280_humidity;BME280_pressure;Samples;Min_cycle;Max_cycle;Signal;HPM_P1;HPM_P2
2021/12/23 00:02:22;;;;;;;10.90;6.77;;;;;;;;;;5031680;28;20407;-79
2021/12/23 00:04:48;;;;;;;12.23;7.53;;;;;;;;;;5031990;28;20441;-79
2021/12/23 00:07:14;;;;;;;14.23;7.80;;;;;;;;;;5034959;28;20411;-79
2021/12/23 00:12:16;;;;;;;12.87;7.20;;;;;;;;;;5035773;28;20402;-79
2021/12/23 00:14:42;;;;;;;11.77;7.37;;;;;;;;;;5052293;28;20972;-79
2021/12/23 00:25:17;;;;;;;9.30;6.33;;;;;;;;;;5035978;28;20454;-79
2021/12/23 00:27:43;;;;;;;11.70;7.33;;;;;;;;;;5051465;28;20438;-79
2021/12/23 00:30:10;;;;;;;13.03;7.03;;;;;;;;;;5051227;28;20906;-79
2021/12/23 00:32:36;;;;;;;11.60;7.20;;;;;;;;;;5050792;28;20500;-79
2021/12/23 00:35:03;;;;;;;11.70;6.90;;;;;;;;;;5034796;28;20955;-79
2021/12/23 00:37:37;;;;;;;10.37;6.60;;;;;;;;;;5051290;28;20415;-79
2021/12/23 00:40:04;;;;;;;12.10;7.33;;;;;;;;;;5051062;28;20430;-79
2021/12/23 00:42:32;;;;;;;11.10;6.37;;;;;;;;;;5051131;28;20979;-79
2021/12/23 00:44:58;;;;;;;12.60;7.10;;;;;;;;;;5034294;28;20521;-79
2021/12/23 00:47:24;;;;;;;12.53;6.87;;;;;;;;;;5034600;28;20434;-79
2021/12/23 00:49:50;;;;;;;10.60;6.67;;;;;;;;;;5034518;28;20416;-79
2021/12/23 00:52:26;;;;;;;10.90;7.20;;;;;;;;;;5034204;28;20423;-79
2021/12/23 00:54:52;;;;;;;11.27;6.70;;;;;;;;;;5050688;28;20556;-79
2021/12/23 00:57:25;;;;;;;11.13;7.37;;;;;;;;;;5034276;28;20415;-79
2021/12/23 00:59:51;;;;;;;12.07;7.53;;;;;;;;;;5035226;28;20419;-79
2021/12/23 01:02:18;;;;;;;10.97;7.30;;;;;;;;;;5033772;28;20423;-79
2021/12/23 01:04:44;;;;;;;12.63;7.40;;;;;;;;;;5050618;28;20520;-79
2021/12/23 01:07:10;;;;;;;12.07;7.70;;;;;;;;;;5034161;28;20441;-79
2021/12/23 01:09:36;;;;;;;12.17;8.03;;;;;;;;;;5050834;28;20776;-79
2021/12/23 01:12:02;;;;;;;11.50;7.03;;;;;;;;;;5050148;28;20420;-79
2021/12/23 01:14:40;;;;;;;12.70;7.50;;;;;;;;;;5034087;28;20480;-79
2021/12/23 01:17:29;;;;;;;12.93;8.17;;;;;;;;;;5050226;28;20504;-79
2021/12/23 01:19:57;;;;;;;12.57;7.87;;;;;;;;;;5037167;28;20923;-79
2021/12/23 01:22:23;;;;;;;14.37;8.23;;;;;;;;;;5033870;28;20490;-79
2021/12/23 01:24:50;;;;;;;14.63;8.60;;;;;;;;;;5050637;28;20448;-79
2021/12/23 01:27:16;;;;;;;13.57;8.63;;;;;;;;;;5050545;28;20477;-79
2021/12/23 01:29:42;;;;;;;14.17;8.50;;;;;;;;;;5050119;28;20420;-79
2021/12/23 01:32:08;;;;;;;13.07;8.10;;;;;;;;;;5050005;28;20419;-79
2021/12/23 01:34:35;;;;;;;11.90;7.43;;;;;;;;;;5049981;28;20462;-79
2021/12/23 01:37:02;;;;;;;12.07;7.70;;;;;;;;;;5049973;28;20421;-79
2021/12/23 01:39:28;;;;;;;11.10;7.37;;;;;;;;;;5050263;28;20415;-79
2021/12/23 01:41:54;;;;;;;12.73;7.73;;;;;;;;;;5049793;28;20424;-79
2021/12/23 01:44:20;;;;;;;11.53;7.40;;;;;;;;;;5033380;28;20442;-79
2021/12/23 01:46:47;;;;;;;12.33;7.37;;;;;;;;;;5033567;28;20431;-79
2021/12/23 01:49:13;;;;;;;10.63;7.03;;;;;;;;;;5049934;28;20411;-79
2021/12/23 01:51:39;;;;;;;12.23;7.30;;;;;;;;;;5049577;28;20416;-79
2021/12/23 01:54:05;;;;;;;11.83;7.37;;;;;;;;;;5033347;28;20904;-79
2021/12/23 01:56:31;;;;;;;12.87;7.63;;;;;;;;;;5049831;28;20450;-79
2021/12/23 01:58:57;;;;;;;10.97;7.13;;;;;;;;;;5033311;28;20925;-79
2021/12/23 02:01:24;;;;;;;11.80;7.20;;;;;;;;;;5032987;28;20420;-79
2021/12/23 02:03:50;;;;;;;11.40;7.27;;;;;;;;;;5049383;28;20458;-79
2021/12/23 02:06:16;;;;;;;11.27;6.77;;;;;;;;;;5033017;28;20416;-79
2021/12/23 02:08:43;;;;;;;12.50;7.27;;;;;;;;;;5049204;28;20432;-79
2021/12/23 02:11:10;;;;;;;12.57;7.47;;;;;;;;;;5049455;28;20417;-79
2021/12/23 02:13:37;;;;;;;10.93;6.97;;;;;;;;;;5049387;28;20216;-79
2021/12/23 02:16:03;;;;;;;11.47;7.00;;;;;;;;;;5032756;28;20951;-79
2021/12/23 02:18:29;;;;;;;13.40;7.60;;;;;;;;;;5032761;28;20425;-79
2021/12/23 02:20:55;;;;;;;13.03;7.40;;;;;;;;;;5032464;28;20181;-79
2021/12/23 02:23:22;;;;;;;12.20;7.77;;;;;;;;;;5032995;28;20554;-79
2021/12/23 02:25:48;;;;;;;12.87;7.10;;;;;;;;;;5032774;28;20839;-79
2021/12/23 02:28:18;;;;;;;11.60;7.33;;;;;;;;;;5032440;28;20425;-79
2021/12/23 02:30:44;;;;;;;18.40;7.23;;;;;;;;;;5031539;28;20576;-79
2021/12/23 02:33:11;;;;;;;12.50;7.83;;;;;;;;;;5032295;28;20459;-79
2021/12/23 02:35:37;;;;;;;11.80;7.13;;;;;;;;;;5032656;28;20951;-79
2021/12/23 02:38:04;;;;;;;13.70;7.60;;;;;;;;;;5048915;28;20463;-79
2021/12/23 02:40:32;;;;;;;12.83;7.20;;;;;;;;;;5048374;28;20184;-79
2021/12/23 02:43:07;;;;;;;12.03;7.17;;;;;;;;;;5048992;28;20420;-79
2021/12/23 02:45:33;;;;;;;13.03;7.23;;;;;;;;;;5048547;28;20432;-79
2021/12/23 02:47:59;;;;;;;11.50;6.67;;;;;;;;;;5048572;28;20177;-79
2021/12/23 02:50:25;;;;;;;14.27;7.27;;;;;;;;;;5032372;28;20178;-79
2021/12/23 02:52:51;;;;;;;11.47;7.30;;;;;;;;;;5032229;28;20182;-79
2021/12/23 02:55:18;;;;;;;12.17;7.10;;;;;;;;;;5032176;28;20479;-79
2021/12/23 02:57:44;;;;;;;10.63;7.23;;;;;;;;;;5032228;28;20205;-79
2021/12/23 03:00:11;;;;;;;12.23;7.30;;;;;;;;;;5048377;28;20679;-79
2021/12/23 03:02:38;;;;;;;11.43;7.53;;;;;;;;;;5031653;28;20181;-79
2021/12/23 03:05:04;;;;;;;10.40;6.77;;;;;;;;;;5048616;28;20261;-79
2021/12/23 03:07:30;;;;;;;11.80;6.80;;;;;;;;;;5048558;28;20415;-79
2021/12/23 03:09:56;;;;;;;10.40;6.33;;;;;;;;;;5031848;28;20410;-79
2021/12/23 03:12:22;;;;;;;16.60;8.50;;;;;;;;;;5031718;28;20233;-79
2021/12/23 03:14:49;;;;;;;12.60;7.77;;;;;;;;;;5031678;28;20220;-79
2021/12/23 03:17:15;;;;;;;11.00;7.27;;;;;;;;;;5048296;28;20568;-79
2021/12/23 03:19:41;;;;;;;12.27;7.13;;;;;;;;;;5031793;28;20508;-79
2021/12/23 03:22:07;;;;;;;11.30;7.37;;;;;;;;;;5047991;28;20420;-79
2021/12/23 03:24:33;;;;;;;10.77;7.23;;;;;;;;;;5031448;28;20206;-79
2021/12/23 03:26:59;;;;;;;12.43;7.20;;;;;;;;;;5048084;28;20417;-79
2021/12/23 03:29:25;;;;;;;10.90;7.27;;;;;;;;;;5031678;28;20922;-79
2021/12/23 03:31:51;;;;;;;13.87;7.83;;;;;;;;;;5030853;28;20423;-79
2021/12/23 03:34:17;;;;;;;13.83;8.27;;;;;;;;;;5031355;28;20468;-79
2021/12/23 03:36:43;;;;;;;13.57;8.40;;;;;;;;;;5031661;28;20180;-79
2021/12/23 03:39:09;;;;;;;15.37;8.90;;;;;;;;;;5031653;28;20452;-79
2021/12/23 03:41:35;;;;;;;15.73;8.50;;;;;;;;;;5049716;28;20208;-79
2021/12/23 03:44:02;;;;;;;14.37;8.60;;;;;;;;;;5035877;28;20969;-79
2021/12/23 03:46:28;;;;;;;13.60;8.23;;;;;;;;;;5052531;28;20498;-79
2021/12/23 03:48:54;;;;;;;12.87;8.07;;;;;;;;;;5052205;28;20192;-79
2021/12/23 03:51:20;;;;;;;13.87;8.23;;;;;;;;;;5035746;28;20444;-79
2021/12/23 03:53:46;;;;;;;12.27;7.47;;;;;;;;;;5051820;28;20506;-79
2021/12/23 03:56:14;;;;;;;15.20;8.53;;;;;;;;;;5035206;28;20193;-79
2021/12/23 03:58:40;;;;;;;16.97;8.77;;;;;;;;;;5051758;28;20818;-79
2021/12/23 04:01:06;;;;;;;13.00;7.97;;;;;;;;;;5035275;28;20210;-79
2021/12/23 04:03:32;;;;;;;15.40;8.27;;;;;;;;;;5052098;28;20236;-79
2021/12/23 04:05:58;;;;;;;13.23;8.17;;;;;;;;;;5035146;28;20210;-79
2021/12/23 04:08:24;;;;;;;14.83;8.60;;;;;;;;;;5035254;28;20192;-79
2021/12/23 04:10:50;;;;;;;14.27;9.00;;;;;;;;;;5035113;28;20182;-79
2021/12/23 04:13:16;;;;;;;13.03;8.10;;;;;;;;;;5035076;28;20586;-79
2021/12/23 04:15:42;;;;;;;15.70;8.90;;;;;;;;;;5034765;28;20220;-79
2021/12/23 04:18:08;;;;;;;14.40;8.63;;;;;;;;;;5034952;28;20182;-79
2021/12/23 04:20:53;;;;;;;16.77;8.83;;;;;;;;;;5051455;28;20176;-79
2021/12/23 04:23:19;;;;;;;15.00;8.47;;;;;;;;;;5037589;28;20229;-79
2021/12/23 04:25:45;;;;;;;12.50;8.23;;;;;;;;;;5034708;28;20205;-79
2021/12/23 04:28:11;;;;;;;13.57;8.33;;;;;;;;;;5034884;28;20236;-79
2021/12/23 04:30:37;;;;;;;15.77;8.90;;;;;;;;;;5051244;28;20416;-79
2021/12/23 04:33:03;;;;;;;15.73;8.63;;;;;;;;;;5050863;28;20588;-79
2021/12/23 04:35:29;;;;;;;15.17;9.27;;;;;;;;;;5034748;28;20223;-79
2021/12/23 04:37:55;;;;;;;14.57;8.70;;;;;;;;;;5051061;28;20182;-79
2021/12/23 04:40:21;;;;;;;14.43;8.90;;;;;;;;;;5050925;28;20191;-79
2021/12/23 04:42:47;;;;;;;13.23;8.23;;;;;;;;;;5034751;28;20174;-79
2021/12/23 04:45:14;;;;;;;12.77;8.43;;;;;;;;;;5034485;28;20440;-79
2021/12/23 04:47:40;;;;;;;16.20;8.77;;;;;;;;;;5051141;28;20178;-79
2021/12/23 04:50:08;;;;;;;16.37;8.87;;;;;;;;;;5051255;28;20204;-79
2021/12/23 04:52:34;;;;;;;14.10;8.83;;;;;;;;;;5049489;28;20181;-79
2021/12/23 04:55:00;;;;;;;15.13;8.13;;;;;;;;;;5050668;28;20207;-79
2021/12/23 04:57:26;;;;;;;12.90;8.03;;;;;;;;;;5034224;28;20183;-79
2021/12/23 04:59:52;;;;;;;15.23;8.50;;;;;;;;;;5034686;28;20234;-79
2021/12/23 05:02:19;;;;;;;15.67;9.60;;;;;;;;;;5034268;28;20178;-79
2021/12/23 05:04:45;;;;;;;14.60;9.57;;;;;;;;;;5034622;28;20201;-79
2021/12/23 05:07:11;;;;;;;15.57;8.97;;;;;;;;;;5050916;28;20224;-79
2021/12/23 05:09:38;;;;;;;17.30;9.47;;;;;;;;;;5033748;28;20715;-79
2021/12/23 05:12:04;;;;;;;17.03;9.77;;;;;;;;;;5034092;28;20178;-79
2021/12/23 05:14:30;;;;;;;17.00;9.23;;;;;;;;;;5050365;28;20264;-79
2021/12/23 05:16:56;;;;;;;16.13;9.47;;;;;;;;;;5033972;28;20178;-79
2021/12/23 05:19:22;;;;;;;16.63;9.00;;;;;;;;;;5033821;28;20186;-79
2021/12/23 05:21:48;;;;;;;16.47;9.70;;;;;;;;;;5033608;28;20557;-79
2021/12/23 05:24:14;;;;;;;16.03;9.60;;;;;;;;;;5033430;28;20578;-79
2021/12/23 05:26:40;;;;;;;15.20;8.43;;;;;;;;;;5034355;28;20259;-79
2021/12/23 05:29:06;;;;;;;16.13;9.30;;;;;;;;;;5034038;28;20194;-79
2021/12/23 05:31:32;;;;;;;16.43;9.83;;;;;;;;;;5033375;28;20217;-80
2021/12/23 05:33:58;;;;;;;15.73;9.40;;;;;;;;;;5033535;28;20214;-79
2021/12/23 05:36:24;;;;;;;14.57;8.70;;;;;;;;;;5033364;28;20178;-80
2021/12/23 05:38:50;;;;;;;13.03;8.30;;;;;;;;;;5033558;28;20414;-79
2021/12/23 05:41:17;;;;;;;16.67;9.00;;;;;;;;;;5033392;28;20737;-79
2021/12/23 05:43:43;;;;;;;14.53;8.27;;;;;;;;;;5033921;28;20278;-79
2021/12/23 05:46:09;;;;;;;16.40;8.87;;;;;;;;;;5033300;28;20220;-79
2021/12/23 05:48:35;;;;;;;16.00;10.03;;;;;;;;;;5049805;28;20180;-78
2021/12/23 05:51:02;;;;;;;16.33;9.50;;;;;;;;;;5032588;28;20562;-78
2021/12/23 05:53:28;;;;;;;14.40;9.03;;;;;;;;;;5033364;28;20513;-79
2021/12/23 05:55:54;;;;;;;14.60;9.63;;;;;;;;;;5032437;28;20209;-79
2021/12/23 05:58:20;;;;;;;16.13;9.63;;;;;;;;;;5032626;28;20236;-79
2021/12/23 06:00:46;;;;;;;18.27;9.57;;;;;;;;;;5049087;28;20170;-78
2021/12/23 06:03:12;;;;;;;19.63;10.20;;;;;;;;;;5032734;28;20540;-79
2021/12/23 06:05:38;;;;;;;22.40;12.23;;;;;;;;;;5048823;28;20228;-79
2021/12/23 06:08:04;;;;;;;20.27;11.47;;;;;;;;;;5032440;28;20209;-81
2021/12/23 06:10:30;;;;;;;19.17;11.63;;;;;;;;;;5048262;28;20185;-83
2021/12/23 06:12:57;;;;;;;20.20;12.67;;;;;;;;;;5032187;28;20186;-83
2021/12/23 06:15:23;;;;;;;25.83;13.10;;;;;;;;;;5090600;22;20762;-79
2021/12/23 06:17:49;;;;;;;24.97;13.57;;;;;;;;;;5035489;28;20267;-79
2021/12/23 06:20:15;;;;;;;24.27;13.03;;;;;;;;;;5051992;28;20185;-80
2021/12/23 06:22:41;;;;;;;22.63;12.97;;;;;;;;;;5034858;28;20930;-82
2021/12/23 06:25:08;;;;;;;21.13;12.40;;;;;;;;;;5035616;28;20292;-79
2021/12/23 06:27:35;;;;;;;24.67;13.73;;;;;;;;;;5051999;28;20200;-80
2021/12/23 06:30:01;;;;;;;22.90;12.37;;;;;;;;;;5052224;28;20640;-78
2021/12/23 06:32:27;;;;;;;20.27;11.53;;;;;;;;;;5053150;28;20177;-79
2021/12/23 06:34:53;;;;;;;22.60;12.77;;;;;;;;;;5052100;28;20224;-78
2021/12/23 06:37:19;;;;;;;21.37;12.97;;;;;;;;;;5035212;28;20185;-79
2021/12/23 06:39:46;;;;;;;22.63;12.80;;;;;;;;;;5035796;28;20174;-79
2021/12/23 06:42:13;;;;;;;23.43;13.43;;;;;;;;;;5035281;28;20209;-79
2021/12/23 06:44:39;;;;;;;23.77;13.50;;;;;;;;;;5035184;28;20294;-79
2021/12/23 06:47:05;;;;;;;23.20;13.67;;;;;;;;;;5034978;28;20178;-79
2021/12/23 06:49:31;;;;;;;26.20;14.73;;;;;;;;;;5034854;28;20189;-79
2021/12/23 06:51:59;;;;;;;25.07;14.00;;;;;;;;;;5051524;28;20170;-78
2021/12/23 06:54:25;;;;;;;21.50;13.57;;;;;;;;;;5051837;28;20217;-78
2021/12/23 06:56:51;;;;;;;24.67;13.23;;;;;;;;;;5051658;28;20211;-78
2021/12/23 06:59:17;;;;;;;21.53;12.50;;;;;;;;;;5035313;28;20185;-78
2021/12/23 07:01:47;;;;;;;23.80;13.37;;;;;;;;;;5035019;28;20182;-78
2021/12/23 07:04:15;;;;;;;23.73;13.40;;;;;;;;;;5035456;28;20268;-78
2021/12/23 07:09:44;;;;;;;23.67;13.70;;;;;;;;;;5030749;28;20185;-77
2021/12/23 07:12:11;;;;;;;25.17;14.17;;;;;;;;;;5043241;28;20197;-77
2021/12/23 07:14:37;;;;;;;26.43;14.40;;;;;;;;;;5051474;28;20236;-78
2021/12/23 07:17:03;;;;;;;23.53;14.30;;;;;;;;;;5051140;28;20181;-78
2021/12/23 07:19:29;;;;;;;24.30;14.23;;;;;;;;;;5051273;28;20659;-78
2021/12/23 07:21:55;;;;;;;24.47;13.77;;;;;;;;;;5051296;28;20174;-78
2021/12/23 07:24:22;;;;;;;26.23;14.83;;;;;;;;;;5051632;28;20204;-77
2021/12/23 07:26:48;;;;;;;27.03;15.13;;;;;;;;;;5051377;28;20184;-77
2021/12/23 07:29:15;;;;;;;29.10;15.50;;;;;;;;;;5035471;28;20186;-78
2021/12/23 07:31:41;;;;;;;31.40;15.97;;;;;;;;;;5035606;28;20178;-77
2021/12/23 07:34:07;;;;;;;25.87;14.67;;;;;;;;;;5051415;28;20212;-76
2021/12/23 07:36:34;;;;;;;26.47;16.00;;;;;;;;;;5052657;28;20170;-77
2021/12/23 07:39:01;;;;;;;28.77;15.63;;;;;;;;;;5035235;28;20276;-77
2021/12/23 07:41:27;;;;;;;29.60;16.20;;;;;;;;;;5051293;28;20192;-77
2021/12/23 07:44:03;;;;;;;30.43;16.10;;;;;;;;;;5034879;28;20182;-77
2021/12/23 07:46:30;;;;;;;26.13;14.70;;;;;;;;;;5051666;28;20179;-77
2021/12/23 07:48:57;;;;;;;29.80;15.67;;;;;;;;;;5051602;28;20208;-77
2021/12/23 07:51:24;;;;;;;27.63;14.90;;;;;;;;;;5051358;28;20178;-77
2021/12/23 07:53:50;;;;;;;30.23;16.13;;;;;;;;;;5051308;28;20260;-77
2021/12/23 07:56:16;;;;;;;27.90;16.10;;;;;;;;;;5052222;28;20197;-77
2021/12/23 07:58:43;;;;;;;29.80;15.93;;;;;;;;;;5034819;28;20192;-77
2021/12/23 08:01:09;;;;;;;29.73;16.43;;;;;;;;;;5051310;28;20176;-78
2021/12/23 08:03:35;;;;;;;31.63;16.53;;;;;;;;;;5034656;28;20190;-77
2021/12/23 08:06:01;;;;;;;31.17;16.03;;;;;;;;;;5051421;28;20201;-78
2021/12/23 08:08:27;;;;;;;30.47;17.00;;;;;;;;;;5051252;28;20178;-78
2021/12/23 08:10:54;;;;;;;30.20;16.00;;;;;;;;;;5050763;28;20181;-78
2021/12/23 08:13:20;;;;;;;30.80;17.33;;;;;;;;;;5034517;28;20307;-78
2021/12/23 08:15:46;;;;;;;30.07;16.23;;;;;;;;;;5050857;28;20586;-77
2021/12/23 08:18:12;;;;;;;27.53;15.50;;;;;;;;;;5034578;28;20562;-78
2021/12/23 08:20:38;;;;;;;31.90;16.50;;;;;;;;;;5051043;28;20174;-78
2021/12/23 08:23:04;;;;;;;28.37;15.63;;;;;;;;;;5036233;28;20192;-78
2021/12/23 08:25:30;;;;;;;29.10;16.33;;;;;;;;;;5036606;28;20201;-79
2021/12/23 08:27:56;;;;;;;33.93;17.47;;;;;;;;;;5055003;28;20181;-79
2021/12/23 08:30:23;;;;;;;33.40;16.70;;;;;;;;;;5057522;28;20177;-79
2021/12/23 08:32:50;;;;;;;35.07;17.23;;;;;;;;;;5038481;28;20185;-78
2021/12/23 08:35:16;;;;;;;29.80;15.97;;;;;;;;;;5054593;28;20237;-76
2021/12/23 08:37:46;;;;;;;29.80;16.20;;;;;;;;;;5054606;28;20189;-78
2021/12/23 08:40:15;;;;;;;29.33;15.40;;;;;;;;;;5054083;28;20178;-78
2021/12/23 08:42:41;;;;;;;29.53;15.23;;;;;;;;;;5054204;28;20177;-79
2021/12/23 08:45:07;;;;;;;25.63;14.17;;;;;;;;;;5055023;28;20226;-79
2021/12/23 08:47:34;;;;;;;24.77;14.27;;;;;;;;;;5054994;28;20174;-78
2021/12/23 08:50:00;;;;;;;26.33;15.00;;;;;;;;;;5053957;28;20550;-78
2021/12/23 08:52:26;;;;;;;27.77;13.93;;;;;;;;;;5053525;28;20183;-78
2021/12/23 08:54:53;;;;;;;25.30;14.57;;;;;;;;;;5055191;28;20711;-78
2021/12/23 08:57:19;;;;;;;22.33;14.33;;;;;;;;;;5054384;28;20184;-79
2021/12/23 08:59:46;;;;;;;25.47;14.27;;;;;;;;;;5055044;28;20174;-81
2021/12/23 09:02:12;;;;;;;24.90;13.63;;;;;;;;;;5036777;28;20224;-81
2021/12/23 09:04:38;;;;;;;23.53;13.63;;;;;;;;;;5053341;28;20206;-82
2021/12/23 09:07:06;;;;;;;24.27;12.77;;;;;;;;;;5037027;28;20178;-81
2021/12/23 09:09:33;;;;;;;27.37;14.00;;;;;;;;;;5053740;28;20181;-81
2021/12/23 09:12:00;;;;;;;25.43;13.87;;;;;;;;;;5036707;28;20200;-81
2021/12/23 09:14:26;;;;;;;26.73;14.63;;;;;;;;;;5053123;28;20636;-82
2021/12/23 09:16:52;;;;;;;26.10;14.13;;;;;;;;;;5036761;28;20229;-81
2021/12/23 09:19:18;;;;;;;26.63;14.03;;;;;;;;;;5053201;28;20173;-82
2021/12/23 09:21:44;;;;;;;22.27;12.60;;;;;;;;;;5036271;28;20175;-81
2021/12/23 09:24:10;;;;;;;24.80;13.33;;;;;;;;;;5036742;28;20191;-82
2021/12/23 09:26:47;;;;;;;26.60;13.27;;;;;;;;;;5053018;28;20186;-81
2021/12/23 09:32:40;;;;;;;25.20;13.60;;;;;;;;;;5037882;28;20190;-81
2021/12/23 09:34:43;;;;;;;24.83;13.43;;;;;;;;;;5052989;28;20307;-81
2021/12/23 09:37:09;;;;;;;24.47;13.80;;;;;;;;;;5053398;28;20178;-82
2021/12/23 09:39:35;;;;;;;23.50;13.60;;;;;;;;;;5052193;28;20183;-81
2021/12/23 09:42:03;;;;;;;21.70;13.37;;;;;;;;;;5036081;28;20552;-81
2021/12/23 09:44:30;;;;;;;26.10;14.10;;;;;;;;;;5036152;28;20203;-81
2021/12/23 09:47:00;;;;;;;30.23;14.37;;;;;;;;;;5053083;28;20178;-80
2021/12/23 09:49:27;;;;;;;23.27;13.50;;;;;;;;;;5052744;28;20171;-79
2021/12/23 09:51:54;;;;;;;23.53;14.10;;;;;;;;;;5035951;28;20183;-79
2021/12/23 09:54:21;;;;;;;23.47;13.83;;;;;;;;;;5035855;28;20211;-80
2021/12/23 09:56:47;;;;;;;26.97;14.13;;;;;;;;;;5052451;28;20188;-80
2021/12/23 09:59:14;;;;;;;24.00;14.03;;;;;;;;;;5052375;28;20661;-80
2021/12/23 10:01:40;;;;;;;25.57;14.03;;;;;;;;;;5052588;28;20175;-79
2021/12/23 10:04:06;;;;;;;23.47;14.30;;;;;;;;;;5052285;28;20180;-79
2021/12/23 10:06:32;;;;;;;25.70;14.83;;;;;;;;;;5052537;28;20175;-80
2021/12/23 10:08:59;;;;;;;23.57;13.97;;;;;;;;;;5052274;28;20183;-79
2021/12/23 10:30:09;;;;;;;27.83;14.73;;;;;;;;;;5052823;28;20195;-80
2021/12/23 10:30:51;;;;;;;28.70;15.47;;;;;;;;;;5052681;28;20184;-80
2021/12/23 10:39:00;;;;;;;27.10;15.40;;;;;;;;;;5052257;28;20250;-80
2021/12/23 10:41:28;;;;;;;29.83;15.80;;;;;;;;;;5034915;28;20603;-79
2021/12/23 10:43:54;;;;;;;25.10;15.07;;;;;;;;;;5035236;28;20209;-80
2021/12/23 10:46:23;;;;;;;24.27;14.33;;;;;;;;;;5051616;28;20204;-80
2021/12/23 10:48:53;;;;;;;28.10;15.50;;;;;;;;;;5035116;28;20199;-80
2021/12/23 10:51:20;;;;;;;26.57;14.73;;;;;;;;;;5050410;28;20288;-79
2021/12/23 10:58:00;;;;;;;26.20;14.47;;;;;;;;;;5035068;28;20686;-80
2021/12/23 10:59:23;;;;;;;26.57;13.90;;;;;;;;;;5052774;28;20192;-79
2021/12/23 11:02:01;;;;;;;29.63;15.97;;;;;;;;;;5052465;28;20247;-80
2021/12/23 11:04:29;;;;;;;31.93;16.63;;;;;;;;;;5051400;28;20582;-80
2021/12/23 11:07:13;;;;;;;30.30;15.20;;;;;;;;;;5034954;28;20183;-80
2021/12/23 11:09:55;;;;;;;28.27;13.63;;;;;;;;;;5051262;28;20175;-80
2021/12/23 11:37:56;;;;;;;28.57;15.50;;;;;;;;;;5051450;28;20190;-80
2021/12/23 11:40:51;;;;;;;30.67;14.90;;;;;;;;;;5050854;28;20167;-81
2021/12/23 11:45:48;;;;;;;27.67;15.13;;;;;;;;;;5052723;28;20216;-77
2021/12/23 11:48:14;;;;;;;30.90;16.00;;;;;;;;;;5051433;28;20182;-79
2021/12/23 11:50:53;;;;;;;27.97;15.23;;;;;;;;;;5050943;28;20176;-79
2021/12/23 11:53:19;;;;;;;25.30;14.80;;;;;;;;;;5036030;28;20190;-77
2021/12/23 11:55:45;;;;;;;27.33;15.97;;;;;;;;;;5034531;28;20296;-78
2021/12/23 11:58:13;;;;;;;27.23;14.70;;;;;;;;;;5035113;28;20187;-79
2021/12/23 12:00:42;;;;;;;26.53;14.80;;;;;;;;;;5050676;28;20203;-79
2021/12/23 12:03:09;;;;;;;27.50;15.80;;;;;;;;;;5037819;28;20191;-78
2021/12/23 12:05:39;;;;;;;29.70;15.13;;;;;;;;;;5056059;28;20203;-78
2021/12/23 12:08:15;;;;;;;20.83;11.87;;;;;;;;;;5056648;28;20632;-79
2021/12/23 12:10:42;;;;;;;22.63;12.77;;;;;;;;;;5040202;28;20246;-78
2021/12/23 12:13:09;;;;;;;20.57;12.07;;;;;;;;;;5040508;28;20527;-79
2021/12/23 12:15:35;;;;;;;21.77;13.57;;;;;;;;;;5076936;22;20340;-77
2021/12/23 12:18:02;;;;;;;22.53;13.53;;;;;;;;;;5054636;28;20181;-82
2021/12/23 12:20:35;;;;;;;22.63;13.80;;;;;;;;;;5038305;28;20189;-82
2021/12/23 12:23:05;;;;;;;21.67;13.30;;;;;;;;;;5054371;28;20192;-82
2021/12/23 12:25:53;;;;;;;21.13;13.20;;;;;;;;;;5055470;28;20202;-82
2021/12/23 12:28:29;;;;;;;22.90;14.07;;;;;;;;;;5054450;28;20164;-82
2021/12/23 12:31:05;;;;;;;26.20;15.17;;;;;;;;;;5054375;28;20172;-82
2021/12/23 12:33:34;;;;;;;22.43;13.57;;;;;;;;;;5037884;28;20233;-84
2021/12/23 12:36:04;;;;;;;24.00;14.80;;;;;;;;;;5053868;28;20220;-82
2021/12/23 12:38:40;;;;;;;22.60;13.03;;;;;;;;;;5054441;28;20225;-82
2021/12/23 12:41:08;;;;;;;22.40;13.93;;;;;;;;;;5037411;28;20189;-82
2021/12/23 12:46:11;;;;;;;22.67;13.77;;;;;;;;;;5055323;28;20200;-81
2021/12/23 12:48:58;;;;;;;27.90;15.43;;;;;;;;;;5053799;28;20661;-81
2021/12/23 12:51:35;;;;;;;21.40;14.00;;;;;;;;;;5053987;28;20188;-78
2021/12/23 12:54:04;;;;;;;25.20;14.57;;;;;;;;;;5053705;28;20200;-80
2021/12/23 12:56:35;;;;;;;25.77;14.53;;;;;;;;;;5053557;28;20283;-83
2021/12/23 12:59:01;;;;;;;24.93;13.80;;;;;;;;;;5055087;28;20172;-85
2021/12/23 13:01:34;;;;;;;24.57;13.93;;;;;;;;;;5053642;28;20181;-85
2021/12/23 13:04:01;;;;;;;24.67;13.73;;;;;;;;;;5053354;28;20181;-79
2021/12/23 13:06:35;;;;;;;24.70;14.70;;;;;;;;;;5037023;28;20212;-79
2021/12/23 13:09:06;;;;;;;27.70;16.00;;;;;;;;;;5053695;28;20655;-82
2021/12/23 13:11:32;;;;;;;25.07;14.90;;;;;;;;;;5053518;28;20195;-81
2021/12/23 13:14:02;;;;;;;25.33;14.57;;;;;;;;;;5052500;28;20231;-81
2021/12/23 13:16:29;;;;;;;27.47;15.50;;;;;;;;;;5053221;28;20288;-81
2021/12/23 13:19:13;;;;;;;30.80;16.17;;;;;;;;;;5036636;28;20177;-81
2021/12/23 13:21:41;;;;;;;26.07;14.70;;;;;;;;;;5053081;28;20777;-81
2021/12/23 13:24:10;;;;;;;26.93;15.73;;;;;;;;;;5053005;28;20199;-81
2021/12/23 13:26:36;;;;;;;28.83;15.20;;;;;;;;;;5036609;28;20232;-81
2021/12/23 13:29:04;;;;;;;28.07;14.87;;;;;;;;;;5036529;28;20237;-81
2021/12/23 13:31:31;;;;;;;23.73;13.93;;;;;;;;;;5036601;28;20185;-81
2021/12/23 13:34:03;;;;;;;25.80;14.63;;;;;;;;;;5052718;28;20208;-82
2021/12/23 13:36:34;;;;;;;24.23;14.43;;;;;;;;;;5052687;28;20200;-81
2021/12/23 13:39:03;;;;;;;23.77;14.07;;;;;;;;;;5053020;28;20178;-81
2021/12/23 13:41:39;;;;;;;24.57;13.23;;;;;;;;;;5052664;28;20188;-81
2021/12/23 13:44:14;;;;;;;24.50;13.50;;;;;;;;;;5053098;28;20720;-81
2021/12/23 13:46:41;;;;;;;21.67;13.63;;;;;;;;;;5052925;28;20294;-81
2021/12/23 13:49:07;;;;;;;24.53;14.60;;;;;;;;;;5036887;28;20192;-81
2021/12/23 13:51:36;;;;;;;23.37;12.97;;;;;;;;;;5036339;28;20189;-83
2021/12/23 13:54:07;;;;;;;21.87;13.17;;;;;;;;;;5036756;28;20200;-82
2021/12/23 13:56:34;;;;;;;25.10;14.10;;;;;;;;;;5053242;28;20223;-80
2021/12/23 13:59:29;;;;;;;21.83;13.10;;;;;;;;;;5053109;28;20306;-80
2021/12/23 14:01:57;;;;;;;21.20;13.30;;;;;;;;;;5048494;28;20208;-80
2021/12/23 14:04:41;;;;;;;21.20;12.23;;;;;;;;;;5053027;28;20174;-77
2021/12/23 14:07:09;;;;;;;21.13;13.07;;;;;;;;;;5052665;28;20204;-77
2021/12/23 14:09:37;;;;;;;24.80;13.60;;;;;;;;;;5036156;28;20647;-77
2021/12/23 14:12:04;;;;;;;23.23;13.67;;;;;;;;;;5052598;28;20185;-77
2021/12/23 14:14:30;;;;;;;24.10;13.20;;;;;;;;;;5052379;28;20197;-77
2021/12/23 14:16:57;;;;;;;22.07;12.93;;;;;;;;;;5036111;28;20178;-77
2021/12/23 14:23:11;;;;;;;21.37;12.87;;;;;;;;;;5035514;28;20655;-77
2021/12/23 14:25:17;;;;;;;24.37;12.93;;;;;;;;;;5053447;28;20263;-78
2021/12/23 14:27:43;;;;;;;22.57;13.23;;;;;;;;;;5035823;28;20195;-77
2021/12/23 14:30:09;;;;;;;22.00;12.63;;;;;;;;;;5035872;28;20200;-77
2021/12/23 14:32:36;;;;;;;22.17;12.80;;;;;;;;;;5035449;28;20651;-77
2021/12/23 14:35:02;;;;;;;20.33;12.63;;;;;;;;;;5035893;28;20213;-77
2021/12/23 14:37:28;;;;;;;23.00;12.97;;;;;;;;;;5035696;28;20552;-77
2021/12/23 14:39:55;;;;;;;22.07;12.57;;;;;;;;;;5035566;28;20663;-77
2021/12/23 14:42:23;;;;;;;21.70;13.00;;;;;;;;;;5035238;28;20648;-77
2021/12/23 14:45:00;;;;;;;22.60;13.33;;;;;;;;;;5035633;28;20212;-77
2021/12/23 14:47:29;;;;;;;22.13;12.17;;;;;;;;;;5051287;28;20184;-77
2021/12/23 14:50:12;;;;;;;21.77;12.77;;;;;;;;;;5035394;28;20182;-78
2021/12/23 14:52:44;;;;;;;21.40;11.93;;;;;;;;;;5051402;28;20183;-77
2021/12/23 14:55:13;;;;;;;21.23;12.57;;;;;;;;;;5034641;28;20206;-77
2021/12/23 14:57:59;;;;;;;21.83;12.90;;;;;;;;;;5051352;28;20207;-78
2021/12/23 15:00:34;;;;;;;20.07;11.53;;;;;;;;;;5034647;28;20523;-78
2021/12/23 15:03:14;;;;;;;20.23;12.20;;;;;;;;;;5051235;28;20173;-77
2021/12/23 15:05:41;;;;;;;23.83;12.67;;;;;;;;;;5051163;28;20197;-77
2021/12/23 15:08:19;;;;;;;21.73;12.43;;;;;;;;;;5051424;28;20181;-77
2021/12/23 15:10:56;;;;;;;20.33;12.10;;;;;;;;;;5051044;28;20526;-77
2021/12/23 15:13:27;;;;;;;20.47;11.97;;;;;;;;;;5034488;28;20182;-77
2021/12/23 15:16:02;;;;;;;20.30;12.03;;;;;;;;;;5050694;28;20209;-77
2021/12/23 15:21:19;;;;;;;20.73;11.60;;;;;;;;;;5052260;28;20174;-77
2021/12/23 15:23:50;;;;;;;18.23;11.27;;;;;;;;;;5051095;28;20184;-77
2021/12/23 15:26:35;;;;;;;20.07;11.27;;;;;;;;;;5050736;28;20202;-77
2021/12/23 15:29:05;;;;;;;18.77;11.60;;;;;;;;;;5034605;28;20555;-77
2021/12/23 15:31:32;;;;;;;19.33;11.50;;;;;;;;;;5050937;28;20189;-77
2021/12/23 15:33:58;;;;;;;18.87;10.90;;;;;;;;;;5034356;28;20204;-78
2021/12/23 15:36:24;;;;;;;18.03;10.50;;;;;;;;;;5050256;28;20193;-77
2021/12/23 15:38:50;;;;;;;19.33;11.00;;;;;;;;;;5051862;28;20174;-78
2021/12/23 15:41:16;;;;;;;20.33;11.23;;;;;;;;;;5034307;28;20178;-78
2021/12/23 15:43:42;;;;;;;17.37;10.73;;;;;;;;;;5034269;28;20181;-78
2021/12/23 15:46:08;;;;;;;16.87;10.57;;;;;;;;;;5034289;28;20205;-80